createdAt,value
2019-01-09T00:00:37.166Z,3.65
2019-01-09T00:03:05.848Z,3.71
2019-01-09T00:05:34.603Z,3.69
2019-01-09T00:08:03.125Z,3.70
2019-01-09T00:10:31.949Z,3.70
2019-01-09T00:13:00.728Z,3.61
2019-01-09T00:15:29.519Z,3.53
2019-01-09T00:17:58.255Z,3.49
2019-01-09T00:20:27.027Z,3.44
2019-01-09T00:22:55.912Z,3.40
2019-01-09T00:25:24.744Z,3.41
2019-01-09T00:27:53.305Z,3.45
2019-01-09T00:30:22.208Z,3.49
2019-01-09T00:32:50.909Z,3.49
2019-01-09T00:35:19.674Z,3.48
2019-01-09T00:37:48.248Z,3.48
2019-01-09T00:40:17.051Z,3.47
2019-01-09T00:42:45.790Z,3.47
2019-01-09T00:45:14.344Z,3.46
2019-01-09T00:47:43.159Z,3.46
2019-01-09T00:50:12.711Z,3.46
2019-01-09T00:52:41.594Z,3.46
2019-01-09T00:55:11.140Z,3.47
2019-01-09T00:57:39.883Z,3.48
2019-01-09T01:00:17.379Z,3.51
2019-01-09T01:03:19.528Z,3.59
2019-01-09T01:05:59.872Z,3.65
2019-01-09T01:08:37.204Z,3.67
2019-01-09T01:11:26.622Z,3.74
2019-01-09T01:14:26.854Z,3.74
2019-01-09T01:17:22.444Z,3.72
2019-01-09T01:20:16.904Z,3.74
2019-01-09T01:22:54.421Z,3.73
2019-01-09T01:25:34.996Z,3.70
2019-01-09T01:28:06.514Z,3.68
2019-01-09T01:31:00.642Z,3.69
2019-01-09T01:33:32.147Z,3.70
2019-01-09T01:36:21.796Z,3.68
2019-01-09T01:39:08.786Z,3.68
2019-01-09T01:41:46.268Z,3.71
2019-01-09T01:44:39.301Z,3.72
2019-01-09T01:47:29.455Z,3.73
2019-01-09T01:50:19.484Z,3.77
2019-01-09T01:52:56.254Z,3.75
2019-01-09T01:55:36.707Z,3.74
2019-01-09T01:58:30.319Z,3.73
2019-01-09T02:01:13.924Z,3.71
2019-01-09T02:04:03.263Z,3.71
2019-01-09T02:07:01.802Z,3.69
2019-01-09T02:09:54.580Z,3.73
2019-01-09T02:12:28.916Z,3.70
2019-01-09T02:15:12.909Z,3.68
2019-01-09T02:17:47.210Z,3.69
2019-01-09T02:20:24.262Z,3.69
2019-01-09T02:23:11.177Z,3.69
2019-01-09T02:25:51.722Z,3.65
2019-01-09T02:28:29.110Z,3.64
2019-01-09T02:31:17.096Z,3.63
2019-01-09T02:33:45.771Z,3.65
2019-01-09T02:36:14.161Z,3.68
2019-01-09T02:38:42.844Z,3.65
2019-01-09T02:41:11.502Z,3.64
2019-01-09T02:43:40.209Z,3.62
2019-01-09T02:46:08.945Z,3.61
2019-01-09T02:48:37.667Z,3.59
2019-01-09T02:51:06.466Z,3.56
2019-01-09T02:53:35.207Z,3.37
2019-01-09T02:56:03.998Z,3.27
2019-01-09T02:58:32.737Z,3.23
2019-01-09T03:01:01.222Z,3.23
2019-01-09T03:03:29.942Z,3.21
2019-01-09T03:05:58.769Z,3.20
2019-01-09T03:08:27.698Z,3.20
2019-01-09T03:10:56.482Z,3.23
2019-01-09T03:13:25.165Z,3.20
2019-01-09T03:15:53.740Z,3.20
2019-01-09T03:18:22.518Z,3.22
2019-01-09T03:20:51.302Z,3.22
2019-01-09T03:23:19.714Z,3.22
2019-01-09T03:25:48.143Z,3.23
2019-01-09T03:28:16.917Z,3.23
2019-01-09T03:30:45.667Z,3.22
2019-01-09T03:33:14.186Z,3.23
2019-01-09T03:35:42.877Z,3.23
2019-01-09T03:38:11.355Z,3.20
2019-01-09T03:40:40.048Z,3.20
2019-01-09T03:43:08.850Z,3.22
2019-01-09T03:45:37.582Z,3.23
2019-01-09T03:48:06.362Z,3.23
2019-01-09T03:50:35.086Z,3.22
2019-01-09T03:53:03.858Z,3.22
2019-01-09T03:55:32.266Z,3.17
2019-01-09T03:58:00.705Z,3.12
2019-01-09T04:00:29.770Z,3.05
2019-01-09T04:02:58.452Z,3.02
2019-01-09T04:05:27.161Z,3.00
2019-01-09T04:07:55.929Z,3.00
2019-01-09T04:10:24.393Z,3.00
2019-01-09T04:12:52.899Z,3.00
2019-01-09T04:15:22.192Z,2.99
2019-01-09T04:17:50.926Z,2.99
2019-01-09T04:20:19.345Z,2.98
2019-01-09T04:22:48.141Z,3.00
2019-01-09T04:25:18.416Z,3.02
2019-01-09T04:27:47.099Z,3.02
2019-01-09T04:30:15.798Z,3.04
2019-01-09T04:32:44.498Z,3.03
2019-01-09T04:35:13.197Z,3.02
2019-01-09T04:37:41.911Z,3.03
2019-01-09T04:40:10.679Z,3.02
2019-01-09T04:42:39.087Z,2.98
2019-01-09T04:45:08.316Z,2.93
2019-01-09T04:47:36.799Z,2.92
2019-01-09T04:50:06.357Z,2.92
2019-01-09T04:52:35.009Z,2.94
2019-01-09T04:55:03.738Z,2.95
2019-01-09T04:57:32.459Z,2.96
2019-01-09T05:00:01.204Z,2.96
2019-01-09T05:02:29.961Z,2.96
2019-01-09T05:04:58.422Z,2.96
2019-01-09T05:07:26.864Z,2.95
2019-01-09T05:09:55.526Z,2.98
2019-01-09T05:12:24.220Z,2.98
2019-01-09T05:14:52.889Z,2.98
2019-01-09T05:17:21.603Z,3.00
2019-01-09T05:19:50.438Z,3.02
2019-01-09T05:22:18.796Z,2.98
2019-01-09T05:24:48.858Z,2.99
2019-01-09T05:27:17.650Z,2.96
2019-01-09T05:29:46.427Z,2.91
2019-01-09T05:32:15.155Z,2.91
2019-01-09T05:34:43.590Z,2.89
2019-01-09T05:37:12.308Z,2.89
2019-01-09T05:39:41.075Z,2.89
2019-01-09T05:42:09.826Z,2.85
2019-01-09T05:44:38.596Z,2.85
2019-01-09T05:47:07.368Z,2.82
2019-01-09T05:49:36.083Z,2.81
2019-01-09T05:52:04.811Z,2.78
2019-01-09T05:54:33.493Z,2.78
2019-01-09T05:57:01.939Z,2.78
2019-01-09T05:59:30.728Z,2.77
2019-01-09T06:01:59.417Z,2.83
2019-01-09T06:04:28.231Z,2.82
2019-01-09T06:06:56.905Z,2.81
2019-01-09T06:09:25.579Z,2.79
2019-01-09T06:11:54.115Z,2.77
2019-01-09T06:14:22.710Z,2.78
2019-01-09T06:16:52.205Z,2.75
2019-01-09T06:19:20.947Z,2.76
2019-01-09T06:21:49.600Z,2.74
2019-01-09T06:24:19.159Z,2.72
2019-01-09T06:26:47.896Z,2.69
2019-01-09T06:29:16.657Z,2.68
2019-01-09T06:31:45.189Z,2.66
2019-01-09T06:34:13.941Z,2.65
2019-01-09T06:36:42.886Z,2.63
2019-01-09T06:39:13.993Z,2.59
2019-01-09T06:41:42.663Z,2.61
2019-01-09T06:44:11.460Z,2.63
2019-01-09T06:46:40.189Z,2.61
2019-01-09T06:49:08.928Z,2.59
2019-01-09T06:51:37.691Z,2.56
2019-01-09T06:54:06.422Z,2.54
2019-01-09T06:56:35.102Z,2.52
2019-01-09T06:59:03.854Z,2.52
2019-01-09T07:01:32.637Z,2.54
2019-01-09T07:04:01.310Z,2.53
2019-01-09T07:06:29.993Z,2.52
2019-01-09T07:08:58.793Z,2.52
2019-01-09T07:11:27.605Z,2.51
2019-01-09T07:13:56.368Z,2.47
2019-01-09T07:16:24.874Z,2.49
2019-01-09T07:18:53.555Z,2.47
2019-01-09T07:21:22.245Z,2.45
2019-01-09T07:23:50.995Z,2.46
2019-01-09T07:26:19.678Z,2.46
2019-01-09T07:28:48.495Z,2.42
2019-01-09T07:31:17.203Z,2.39
2019-01-09T07:33:46.065Z,2.39
2019-01-09T07:36:14.747Z,2.38
2019-01-09T07:38:43.565Z,2.41
2019-01-09T07:41:12.270Z,2.45
2019-01-09T07:43:40.683Z,2.47
2019-01-09T07:46:09.413Z,2.50
2019-01-09T07:48:38.198Z,2.52
2019-01-09T07:51:06.874Z,2.52
2019-01-09T07:53:35.399Z,2.56
2019-01-09T07:56:04.123Z,2.57
2019-01-09T07:58:32.556Z,2.58
2019-01-09T08:01:01.302Z,2.61
2019-01-09T08:03:30.013Z,2.61
2019-01-09T08:05:58.471Z,2.59
2019-01-09T08:08:27.204Z,2.57
2019-01-09T08:10:55.706Z,2.57
2019-01-09T08:13:24.352Z,2.56
2019-01-09T08:15:53.052Z,2.58
2019-01-09T08:18:21.887Z,2.56
2019-01-09T08:20:50.289Z,2.53
2019-01-09T08:23:19.002Z,2.52
2019-01-09T08:25:47.675Z,2.51
2019-01-09T08:28:16.374Z,2.51
2019-01-09T08:30:45.745Z,2.53
2019-01-09T08:33:14.426Z,2.54
2019-01-09T08:35:43.177Z,2.61
2019-01-09T08:38:11.866Z,2.63
2019-01-09T08:40:40.853Z,2.66
2019-01-09T08:43:09.619Z,2.68
2019-01-09T08:45:38.028Z,2.68
2019-01-09T08:48:06.440Z,2.70
2019-01-09T08:50:35.187Z,2.68
2019-01-09T08:53:04.103Z,2.65
2019-01-09T08:55:32.804Z,2.63
2019-01-09T08:58:01.559Z,2.64
2019-01-09T09:00:30.010Z,2.65
2019-01-09T09:02:58.816Z,2.71
2019-01-09T09:05:27.498Z,2.76
2019-01-09T09:08:01.073Z,2.81
2019-01-09T09:10:29.908Z,2.82
2019-01-09T09:12:58.433Z,2.84
2019-01-09T09:15:26.942Z,2.88
2019-01-09T09:17:55.446Z,2.91
2019-01-09T09:20:24.202Z,2.92
2019-01-09T09:22:52.896Z,2.98
2019-01-09T09:25:21.414Z,3.02
2019-01-09T09:27:49.806Z,3.04
2019-01-09T09:30:18.938Z,3.04
2019-01-09T09:32:47.676Z,3.08
2019-01-09T09:35:16.139Z,3.07
2019-01-09T09:37:44.547Z,3.12
2019-01-09T09:40:16.772Z,3.16
2019-01-09T09:42:45.626Z,3.18
2019-01-09T09:45:14.464Z,3.19
2019-01-09T09:47:43.052Z,3.25
2019-01-09T09:50:14.705Z,3.29
2019-01-09T09:52:43.417Z,3.33
2019-01-09T09:55:12.944Z,3.31
2019-01-09T09:57:41.658Z,3.31
2019-01-09T10:00:13.447Z,3.32
2019-01-09T10:02:42.195Z,3.32
2019-01-09T10:05:11.047Z,3.40
2019-01-09T10:07:39.860Z,3.41
2019-01-09T10:10:11.450Z,3.43
2019-01-09T10:12:39.890Z,3.43
2019-01-09T10:15:11.784Z,3.48
2019-01-09T10:17:40.631Z,3.50
2019-01-09T10:20:15.309Z,3.52
2019-01-09T10:22:45.857Z,3.54
2019-01-09T10:25:14.347Z,3.58
2019-01-09T10:27:43.051Z,3.62
2019-01-09T10:30:20.034Z,3.60
2019-01-09T10:32:49.202Z,3.58
2019-01-09T10:35:17.693Z,3.57
2019-01-09T10:37:47.000Z,3.54
2019-01-09T10:40:18.344Z,3.55
2019-01-09T10:42:47.191Z,3.49
2019-01-09T10:45:18.770Z,3.47
2019-01-09T10:47:47.277Z,3.48
2019-01-09T10:50:17.139Z,3.51
2019-01-09T10:52:45.659Z,3.50
2019-01-09T10:55:16.782Z,3.63
2019-01-09T10:57:45.505Z,3.71
2019-01-09T11:00:20.262Z,3.73
2019-01-09T11:02:49.184Z,3.76
2019-01-09T11:05:18.185Z,3.90
2019-01-09T11:07:46.932Z,4.02
2019-01-09T11:10:18.079Z,3.98
2019-01-09T11:12:46.655Z,4.00
2019-01-09T11:15:15.565Z,4.03
2019-01-09T11:17:44.036Z,4.04
2019-01-09T11:20:20.863Z,4.08
2019-01-09T11:22:49.677Z,4.08
2019-01-09T11:25:20.639Z,4.07
2019-01-09T11:27:49.506Z,4.09
2019-01-09T11:30:20.755Z,4.18
2019-01-09T11:32:49.245Z,4.24
2019-01-09T11:35:20.275Z,4.21
2019-01-09T11:37:49.024Z,4.23
2019-01-09T11:40:19.412Z,4.20
2019-01-09T11:42:48.149Z,4.19
2019-01-09T11:45:19.039Z,4.23
2019-01-09T11:47:48.422Z,4.24
2019-01-09T11:50:18.058Z,4.23
2019-01-09T11:52:46.835Z,4.21
2019-01-09T11:55:15.912Z,4.15
2019-01-09T11:57:44.787Z,4.15
2019-01-09T12:00:21.867Z,4.18
2019-01-09T12:02:50.736Z,4.15
2019-01-09T12:05:19.468Z,4.17
2019-01-09T12:07:48.339Z,4.16
2019-01-09T12:10:19.845Z,4.25
2019-01-09T12:12:48.515Z,4.26
2019-01-09T12:15:18.566Z,4.25
2019-01-09T12:17:47.444Z,4.29
2019-01-09T12:20:17.812Z,4.28
2019-01-09T12:22:47.049Z,4.30
2019-01-09T12:25:15.911Z,4.26
2019-01-09T12:27:44.626Z,4.23
2019-01-09T12:30:25.047Z,4.30
2019-01-09T12:32:53.582Z,4.37
2019-01-09T12:35:22.371Z,4.44
2019-01-09T12:37:51.241Z,4.44
2019-01-09T12:40:19.894Z,4.40
2019-01-09T12:42:48.584Z,4.38
2019-01-09T12:45:18.038Z,4.37
2019-01-09T12:47:46.787Z,4.43
2019-01-09T12:50:20.821Z,4.37
2019-01-09T12:52:49.228Z,4.35
2019-01-09T12:55:17.721Z,4.20
2019-01-09T12:57:46.125Z,4.19
2019-01-09T13:00:18.131Z,4.11
2019-01-09T13:02:46.882Z,4.07
2019-01-09T13:05:15.924Z,4.04
2019-01-09T13:07:44.740Z,4.05
2019-01-09T13:10:13.537Z,4.15
2019-01-09T13:12:42.454Z,4.11
2019-01-09T13:15:11.513Z,4.08
2019-01-09T13:17:40.261Z,4.18
2019-01-09T13:20:14.194Z,4.26
2019-01-09T13:22:42.658Z,4.33
2019-01-09T13:25:13.680Z,4.33
2019-01-09T13:27:42.432Z,4.36
2019-01-09T13:30:16.833Z,4.57
2019-01-09T13:32:45.654Z,4.64
2019-01-09T13:35:14.417Z,4.55
2019-01-09T13:37:43.293Z,4.47
2019-01-09T13:40:14.742Z,4.41
2019-01-09T13:42:43.875Z,4.41
2019-01-09T13:45:15.164Z,4.29
2019-01-09T13:47:43.654Z,4.28
2019-01-09T13:50:14.967Z,4.35
2019-01-09T13:52:43.457Z,4.35
2019-01-09T13:55:14.327Z,4.33
2019-01-09T13:57:42.780Z,4.29
2019-01-09T14:00:16.955Z,4.28
2019-01-09T14:02:45.502Z,4.38
2019-01-09T14:05:15.022Z,4.35
2019-01-09T14:07:43.864Z,4.35
2019-01-09T14:10:15.118Z,4.34
2019-01-09T14:12:43.861Z,4.35
2019-01-09T14:15:15.743Z,4.33
2019-01-09T14:17:44.508Z,4.31
2019-01-09T14:20:13.756Z,4.28
2019-01-09T14:22:42.698Z,4.32
2019-01-09T14:25:13.357Z,4.28
2019-01-09T14:27:42.096Z,4.22
2019-01-09T14:30:19.331Z,4.20
2019-01-09T14:32:48.168Z,4.19
2019-01-09T14:35:17.062Z,4.25
2019-01-09T14:37:46.683Z,4.28
2019-01-09T14:40:20.398Z,4.19
2019-01-09T14:42:49.242Z,4.17
2019-01-09T14:45:18.772Z,4.12
2019-01-09T14:47:47.299Z,4.10
2019-01-09T14:50:21.109Z,4.08
2019-01-09T14:52:49.871Z,4.05
2019-01-09T14:55:18.678Z,4.01
2019-01-09T14:57:47.928Z,3.99
2019-01-09T15:00:19.311Z,3.96
2019-01-09T15:02:48.050Z,4.01
2019-01-09T15:05:16.939Z,3.99
2019-01-09T15:07:45.697Z,3.92
2019-01-09T15:10:28.066Z,3.87
2019-01-09T15:12:57.598Z,3.82
2019-01-09T15:15:26.479Z,3.80
2019-01-09T15:17:55.009Z,3.80
2019-01-09T15:20:23.474Z,3.71
2019-01-09T15:22:52.195Z,3.63
2019-01-09T15:25:21.000Z,3.60
2019-01-09T15:27:49.591Z,3.71
2019-01-09T15:30:25.507Z,3.68
2019-01-09T15:32:54.309Z,3.69
2019-01-09T15:35:23.244Z,3.60
2019-01-09T15:37:51.755Z,3.59
2019-01-09T15:40:23.155Z,3.56
2019-01-09T15:42:52.440Z,3.53
2019-01-09T15:45:21.225Z,3.51
2019-01-09T15:47:49.656Z,3.52
2019-01-09T15:50:20.681Z,3.53
2019-01-09T15:52:49.416Z,3.52
2019-01-09T15:55:18.293Z,3.48
2019-01-09T15:57:49.142Z,3.44
2019-01-09T16:00:20.689Z,3.40
2019-01-09T16:02:49.485Z,3.43
2019-01-09T16:05:18.039Z,3.42
2019-01-09T16:07:46.796Z,3.37
2019-01-09T16:10:20.460Z,3.31
2019-01-09T16:12:48.881Z,3.30
2019-01-09T16:15:19.521Z,3.25
2019-01-09T16:17:48.283Z,3.17
2019-01-09T16:20:19.239Z,3.22
2019-01-09T16:22:48.041Z,3.20
2019-01-09T16:25:16.871Z,3.22
2019-01-09T16:27:45.591Z,3.18
2019-01-09T16:30:34.262Z,3.13
2019-01-09T16:33:03.259Z,3.17
2019-01-09T16:35:34.578Z,3.14
2019-01-09T16:38:03.100Z,3.13
2019-01-09T16:40:31.841Z,3.10
2019-01-09T16:43:00.606Z,3.09
2019-01-09T16:45:29.437Z,3.03
2019-01-09T16:47:58.768Z,3.01
2019-01-09T16:50:27.688Z,3.06
2019-01-09T16:52:56.435Z,3.10
2019-01-09T16:55:25.608Z,3.07
2019-01-09T16:57:54.178Z,3.10
2019-01-09T17:00:28.453Z,3.09
2019-01-09T17:02:58.574Z,3.08
2019-01-09T17:05:27.148Z,3.10
2019-01-09T17:07:55.939Z,3.10
2019-01-09T17:10:32.336Z,3.07
2019-01-09T17:12:55.518Z,3.02
2019-01-09T17:15:24.228Z,2.98
2019-01-09T17:17:53.012Z,2.98
2019-01-09T17:20:29.279Z,2.97
2019-01-09T17:22:58.079Z,3.01
2019-01-09T17:25:26.616Z,3.00
2019-01-09T17:27:55.443Z,2.97
2019-01-09T17:30:29.442Z,1.62
2019-01-09T17:32:58.316Z,2.91
2019-01-09T17:35:27.057Z,2.90
2019-01-09T17:37:55.988Z,2.84
2019-01-09T17:40:25.648Z,2.89
2019-01-09T17:42:54.595Z,2.91
2019-01-09T17:45:24.246Z,2.87
2019-01-09T17:47:52.997Z,2.82
2019-01-09T17:50:25.011Z,2.81
2019-01-09T17:52:54.777Z,2.81
2019-01-09T17:55:23.677Z,2.81
2019-01-09T17:57:52.277Z,2.80
2019-01-09T18:00:29.162Z,2.77
2019-01-09T18:02:57.909Z,2.78
2019-01-09T18:05:26.698Z,2.75
2019-01-09T18:07:55.484Z,2.70
2019-01-09T18:10:26.996Z,2.69
2019-01-09T18:12:55.754Z,2.64
2019-01-09T18:15:25.300Z,2.60
2019-01-09T18:17:53.814Z,2.57
2019-01-09T18:20:23.650Z,2.53
2019-01-09T18:22:52.638Z,2.51
2019-01-09T18:25:24.528Z,2.52
2019-01-09T18:27:53.900Z,2.51
2019-01-09T18:30:27.190Z,2.52
2019-01-09T18:32:59.162Z,2.55
2019-01-09T18:35:55.200Z,2.54
2019-01-09T18:38:28.933Z,2.52
2019-01-09T18:41:06.248Z,2.52
2019-01-09T18:43:53.116Z,2.54
2019-01-09T18:46:40.205Z,2.52
2019-01-09T18:49:14.884Z,2.51
2019-01-09T18:52:08.674Z,2.51
2019-01-09T18:54:37.473Z,2.54
2019-01-09T18:57:06.111Z,2.51
2019-01-09T18:59:34.529Z,2.50
2019-01-09T19:02:03.442Z,2.51
2019-01-09T19:04:31.849Z,2.50
2019-01-09T19:07:00.439Z,2.52
2019-01-09T19:09:29.221Z,2.50
2019-01-09T19:11:57.984Z,2.48
2019-01-09T19:14:26.707Z,2.47
2019-01-09T19:16:55.588Z,2.48
2019-01-09T19:19:24.137Z,2.49
2019-01-09T19:21:55.917Z,2.49
2019-01-09T19:24:24.676Z,2.50
2019-01-09T19:26:53.511Z,2.50
2019-01-09T19:29:22.295Z,2.51
2019-01-09T19:31:51.442Z,2.50
2019-01-09T19:34:20.151Z,2.50
2019-01-09T19:36:49.021Z,2.49
2019-01-09T19:39:17.805Z,2.47
2019-01-09T19:41:46.297Z,2.48
2019-01-09T19:44:15.067Z,2.45
2019-01-09T19:46:43.529Z,2.45
2019-01-09T19:49:12.291Z,2.49
2019-01-09T19:51:41.133Z,2.46
2019-01-09T19:54:09.801Z,2.41
2019-01-09T19:56:38.218Z,2.39
2019-01-09T19:59:07.841Z,2.34
2019-01-09T20:01:36.712Z,2.32
2019-01-09T20:04:05.631Z,2.30
2019-01-09T20:06:34.193Z,2.27
2019-01-09T20:09:02.994Z,2.27
2019-01-09T20:11:31.723Z,2.24
2019-01-09T20:14:00.562Z,2.21
2019-01-09T20:16:29.112Z,2.18
2019-01-09T20:18:57.889Z,2.15
2019-01-09T20:21:26.547Z,2.13
2019-01-09T20:23:55.138Z,1.10
2019-01-09T20:26:23.941Z,2.11
2019-01-09T20:28:52.614Z,2.10
2019-01-09T20:31:21.419Z,2.10
2019-01-09T20:33:50.677Z,2.04
2019-01-09T20:36:19.617Z,2.01
2019-01-09T20:38:48.329Z,2.00
2019-01-09T20:41:17.619Z,1.96
2019-01-09T20:43:46.051Z,1.97
2019-01-09T20:46:14.813Z,1.97
2019-01-09T20:48:43.576Z,1.95
2019-01-09T20:51:12.443Z,1.95
2019-01-09T20:53:41.356Z,1.94
2019-01-09T20:56:11.155Z,1.92
2019-01-09T20:58:40.190Z,1.88
2019-01-09T21:01:09.129Z,1.88
2019-01-09T21:03:37.976Z,1.87
2019-01-09T21:06:07.064Z,1.87
2019-01-09T21:08:35.857Z,1.88
2019-01-09T21:11:04.770Z,1.87
2019-01-09T21:13:33.457Z,1.88
2019-01-09T21:16:02.164Z,1.86
2019-01-09T21:18:30.650Z,1.84
2019-01-09T21:20:59.319Z,1.86
2019-01-09T21:23:28.507Z,1.84
2019-01-09T21:25:57.390Z,1.81
2019-01-09T21:28:25.999Z,1.77
2019-01-09T21:30:54.515Z,1.75
2019-01-09T21:33:23.071Z,1.73
2019-01-09T21:35:52.507Z,1.72
2019-01-09T21:38:20.983Z,1.74
2019-01-09T21:40:49.502Z,1.72
2019-01-09T21:43:17.986Z,1.69
2019-01-09T21:45:46.463Z,1.67
2019-01-09T21:48:15.249Z,1.64
2019-01-09T21:50:43.929Z,1.62
2019-01-09T21:53:12.908Z,1.58
2019-01-09T21:55:41.677Z,1.54
2019-01-09T21:58:10.398Z,1.49
2019-01-09T22:00:39.369Z,1.45
2019-01-09T22:03:08.156Z,1.42
2019-01-09T22:05:37.334Z,1.40
2019-01-09T22:08:06.670Z,1.41
2019-01-09T22:10:35.565Z,1.43
2019-01-09T22:13:04.889Z,1.44
2019-01-09T22:15:33.630Z,1.46
2019-01-09T22:18:02.102Z,1.45
2019-01-09T22:20:30.881Z,1.44
2019-01-09T22:22:59.740Z,1.44
2019-01-09T22:25:28.379Z,1.44
2019-01-09T22:27:58.367Z,1.43
2019-01-09T22:30:28.383Z,1.46
2019-01-09T22:32:57.512Z,1.44
2019-01-09T22:35:26.376Z,1.46
2019-01-09T22:37:55.042Z,1.46
2019-01-09T22:40:24.346Z,1.45
2019-01-09T22:42:53.184Z,1.45
2019-01-09T22:45:22.121Z,1.45
2019-01-09T22:47:50.627Z,1.42
2019-01-09T22:50:23.410Z,1.41
2019-01-09T22:52:52.187Z,1.39
2019-01-09T22:55:23.607Z,1.40
2019-01-09T22:57:52.429Z,1.36
2019-01-09T23:00:43.174Z,1.37
2019-01-09T23:03:13.835Z,1.39
2019-01-09T23:05:44.560Z,1.38
2019-01-09T23:08:13.393Z,1.32
2019-01-09T23:10:41.860Z,1.32
2019-01-09T23:13:10.447Z,1.30
2019-01-09T23:15:39.295Z,1.26
2019-01-09T23:18:08.399Z,1.24
2019-01-09T23:20:40.189Z,1.24
2019-01-09T23:23:09.619Z,1.22
2019-01-09T23:25:38.221Z,1.23
2019-01-09T23:28:07.327Z,1.17
2019-01-09T23:30:35.794Z,1.14
2019-01-09T23:33:05.016Z,1.15
2019-01-09T23:35:33.847Z,1.12
2019-01-09T23:38:04.192Z,1.09
2019-01-09T23:40:33.112Z,1.06
2019-01-09T23:43:04.263Z,1.03
2019-01-09T23:45:32.777Z,1.07
2019-01-09T23:48:01.518Z,1.09
2019-01-09T23:50:30.212Z,1.10
2019-01-09T23:52:58.894Z,1.06
2019-01-09T23:55:27.374Z,1.05
2019-01-09T23:57:55.783Z,1.05
